createdAt,value
2018-09-30T00:00:21.597Z,99.90
2018-09-30T00:02:49.997Z,99.90
2018-09-30T00:05:18.742Z,99.90
2018-09-30T00:07:47.122Z,99.90
2018-09-30T00:10:15.508Z,99.90
2018-09-30T00:12:44.171Z,99.90
2018-09-30T00:15:12.592Z,99.90
2018-09-30T00:17:40.997Z,99.90
2018-09-30T00:20:09.421Z,99.90
2018-09-30T00:22:37.869Z,99.90
2018-09-30T00:25:11.562Z,99.90
2018-09-30T00:27:39.993Z,99.90
2018-09-30T00:30:08.456Z,99.90
2018-09-30T00:32:36.854Z,99.90
2018-09-30T00:35:05.456Z,99.90
2018-09-30T00:37:33.852Z,99.90
2018-09-30T00:40:02.260Z,99.90
2018-09-30T00:42:30.662Z,99.90
2018-09-30T00:44:59.129Z,99.90
2018-09-30T00:47:27.568Z,99.90
2018-09-30T00:49:55.973Z,99.90
2018-09-30T00:52:24.668Z,99.90
2018-09-30T00:54:53.052Z,99.90
2018-09-30T00:57:21.464Z,99.90
2018-09-30T00:59:49.870Z,99.90
2018-09-30T01:02:18.258Z,99.90
2018-09-30T01:04:46.661Z,99.90
2018-09-30T01:07:15.075Z,99.90
2018-09-30T01:09:43.464Z,99.90
2018-09-30T01:12:11.876Z,99.90
2018-09-30T01:14:40.312Z,99.90
2018-09-30T01:17:08.741Z,99.90
2018-09-30T01:19:37.340Z,99.90
2018-09-30T01:22:05.769Z,99.90
2018-09-30T01:24:34.139Z,99.90
2018-09-30T01:27:02.556Z,99.90
2018-09-30T01:29:30.946Z,99.90
2018-09-30T01:31:59.543Z,99.90
2018-09-30T01:34:27.927Z,99.90
2018-09-30T01:36:56.305Z,99.90
2018-09-30T01:39:24.877Z,99.90
2018-09-30T01:41:53.251Z,99.90
2018-09-30T01:44:21.625Z,99.90
2018-09-30T01:46:50.044Z,99.90
2018-09-30T01:49:18.422Z,99.90
2018-09-30T01:51:56.862Z,99.90
2018-09-30T01:54:25.259Z,99.90
2018-09-30T01:56:53.681Z,99.90
2018-09-30T01:59:22.065Z,99.90
2018-09-30T02:01:50.820Z,99.90
2018-09-30T02:04:19.208Z,99.90
2018-09-30T02:06:47.590Z,99.90
2018-09-30T02:09:15.978Z,99.90
2018-09-30T02:11:44.364Z,99.90
2018-09-30T02:14:12.752Z,99.90
2018-09-30T02:16:41.356Z,99.90
2018-09-30T02:19:09.757Z,99.90
2018-09-30T02:21:38.181Z,99.90
2018-09-30T02:24:06.561Z,99.90
2018-09-30T02:26:34.948Z,99.90
2018-09-30T02:29:03.340Z,99.90
2018-09-30T02:31:31.820Z,99.90
2018-09-30T02:34:00.308Z,99.90
2018-09-30T02:36:28.704Z,99.90
2018-09-30T02:38:57.069Z,99.90
2018-09-30T02:41:25.470Z,99.90
2018-09-30T02:43:53.851Z,99.90
2018-09-30T02:46:22.397Z,99.90
2018-09-30T02:48:50.772Z,99.90
2018-09-30T02:51:19.381Z,99.90
2018-09-30T02:53:48.048Z,99.90
2018-09-30T02:56:16.424Z,99.90
2018-09-30T02:58:44.924Z,99.90
2018-09-30T03:01:13.333Z,99.90
2018-09-30T03:03:41.708Z,99.90
2018-09-30T03:06:17.330Z,99.90
2018-09-30T03:08:51.006Z,99.90
2018-09-30T03:11:20.072Z,99.90
2018-09-30T03:13:48.436Z,99.90
2018-09-30T03:16:16.818Z,99.90
2018-09-30T03:18:45.221Z,99.90
2018-09-30T03:21:13.610Z,99.90
2018-09-30T03:23:42.008Z,99.90
2018-09-30T03:26:10.401Z,99.90
2018-09-30T03:28:38.804Z,99.90
2018-09-30T03:31:07.212Z,99.90
2018-09-30T03:33:35.636Z,99.90
2018-09-30T03:36:04.229Z,99.90
2018-09-30T03:38:32.616Z,99.90
2018-09-30T03:41:00.997Z,99.90
2018-09-30T03:43:29.403Z,99.90
2018-09-30T03:45:57.837Z,99.90
2018-09-30T03:48:26.257Z,99.90
2018-09-30T03:50:54.631Z,99.90
2018-09-30T03:53:23.489Z,99.90
2018-09-30T03:55:51.860Z,99.90
2018-09-30T03:58:20.311Z,99.90
2018-09-30T04:00:48.700Z,99.90
2018-09-30T04:03:17.097Z,99.90
2018-09-30T04:05:45.459Z,99.90
2018-09-30T04:08:13.862Z,99.90
2018-09-30T04:10:42.246Z,99.90
2018-09-30T04:13:10.643Z,99.90
2018-09-30T04:15:39.508Z,99.90
2018-09-30T04:18:07.905Z,99.90
2018-09-30T04:20:36.534Z,99.90
2018-09-30T04:23:04.949Z,99.90
2018-09-30T04:25:33.333Z,99.90
2018-09-30T04:28:01.716Z,99.90
2018-09-30T04:30:30.360Z,99.90
2018-09-30T04:32:58.740Z,99.90
2018-09-30T04:35:27.161Z,99.90
2018-09-30T04:37:55.543Z,99.90
2018-09-30T04:40:24.284Z,99.90
2018-09-30T04:42:52.736Z,99.90
2018-09-30T04:45:21.147Z,99.90
2018-09-30T04:47:49.545Z,99.90
2018-09-30T04:50:17.965Z,99.90
2018-09-30T04:52:46.364Z,99.90
2018-09-30T04:55:14.805Z,99.90
2018-09-30T04:57:43.228Z,99.90
2018-09-30T05:00:11.624Z,99.90
2018-09-30T05:02:40.170Z,99.90
2018-09-30T05:05:08.652Z,99.90
2018-09-30T05:07:37.041Z,99.90
2018-09-30T05:10:05.476Z,99.90
2018-09-30T05:12:33.880Z,99.90
2018-09-30T05:15:02.350Z,99.90
2018-09-30T05:17:30.724Z,99.90
2018-09-30T05:19:59.156Z,99.90
2018-09-30T05:22:27.583Z,99.90
2018-09-30T05:24:55.968Z,99.90
2018-09-30T05:27:24.360Z,99.90
2018-09-30T05:29:52.766Z,99.90
2018-09-30T05:32:21.244Z,99.90
2018-09-30T05:34:49.788Z,99.90
2018-09-30T05:37:18.274Z,99.90
2018-09-30T05:39:46.667Z,99.90
2018-09-30T05:42:15.068Z,99.90
2018-09-30T05:44:43.708Z,99.90
2018-09-30T05:47:12.108Z,99.90
2018-09-30T05:49:40.604Z,99.90
2018-09-30T05:52:09.006Z,99.90
2018-09-30T05:54:37.402Z,99.90
2018-09-30T05:57:05.854Z,99.90
2018-09-30T05:59:35.117Z,99.90
2018-09-30T06:02:03.513Z,99.90
2018-09-30T06:04:31.920Z,99.90
2018-09-30T06:07:00.317Z,99.90
2018-09-30T06:09:28.778Z,99.90
2018-09-30T06:11:57.194Z,99.90
2018-09-30T06:14:25.616Z,99.90
2018-09-30T06:16:54.020Z,99.90
2018-09-30T06:19:22.420Z,99.90
2018-09-30T06:21:50.829Z,99.90
2018-09-30T06:24:19.257Z,99.90
2018-09-30T06:26:47.648Z,99.90
2018-09-30T06:29:16.087Z,99.90
2018-09-30T06:31:44.587Z,99.90
2018-09-30T06:34:13.155Z,99.90
2018-09-30T06:36:41.565Z,99.90
2018-09-30T06:39:10.621Z,99.90
2018-09-30T06:41:39.213Z,99.90
2018-09-30T06:44:07.869Z,99.90
2018-09-30T06:46:36.466Z,99.90
2018-09-30T06:49:04.881Z,99.90
2018-09-30T06:51:33.258Z,99.90
2018-09-30T06:54:01.756Z,99.90
2018-09-30T06:56:30.297Z,99.90
2018-09-30T06:58:58.701Z,99.90
2018-09-30T07:01:27.101Z,99.90
2018-09-30T07:03:55.548Z,99.90
2018-09-30T07:06:23.976Z,99.90
2018-09-30T07:08:52.682Z,99.90
2018-09-30T07:11:21.297Z,99.90
2018-09-30T07:13:49.708Z,99.90
2018-09-30T07:16:18.113Z,99.90
2018-09-30T07:18:46.533Z,99.90
2018-09-30T07:21:14.993Z,99.90
2018-09-30T07:23:45.725Z,99.90
2018-09-30T07:26:14.135Z,99.90
2018-09-30T07:28:42.797Z,99.90
2018-09-30T07:31:11.237Z,99.90
2018-09-30T07:33:39.730Z,99.90
2018-09-30T07:36:08.352Z,99.90
2018-09-30T07:38:36.881Z,99.90
2018-09-30T07:41:05.357Z,99.90
2018-09-30T07:43:33.935Z,99.90
2018-09-30T07:46:02.354Z,99.90
2018-09-30T07:48:30.776Z,99.90
2018-09-30T07:50:59.742Z,99.90
2018-09-30T07:53:28.288Z,99.90
2018-09-30T07:55:56.785Z,99.90
2018-09-30T07:58:25.200Z,99.90
2018-09-30T08:00:53.603Z,99.90
2018-09-30T08:03:22.002Z,99.90
2018-09-30T08:05:50.618Z,99.90
2018-09-30T08:08:19.029Z,99.90
2018-09-30T08:10:47.452Z,99.90
2018-09-30T08:13:16.081Z,99.90
2018-09-30T08:15:44.484Z,99.90
2018-09-30T08:18:12.889Z,99.90
2018-09-30T08:20:41.292Z,99.90
2018-09-30T08:23:09.703Z,99.90
2018-09-30T08:25:38.130Z,99.90
2018-09-30T08:28:06.801Z,99.90
2018-09-30T08:30:35.208Z,99.90
2018-09-30T08:33:03.599Z,99.90
2018-09-30T08:35:31.993Z,99.90
2018-09-30T08:38:05.893Z,99.90
2018-09-30T08:40:39.589Z,99.90
2018-09-30T08:43:08.272Z,99.90
2018-09-30T08:45:36.702Z,99.90
2018-09-30T08:48:05.103Z,99.90
2018-09-30T08:50:33.804Z,99.90
2018-09-30T08:53:02.208Z,99.90
2018-09-30T08:55:30.784Z,99.90
2018-09-30T08:57:59.275Z,99.90
2018-09-30T09:00:27.672Z,99.90
2018-09-30T09:02:56.376Z,99.90
2018-09-30T09:05:24.749Z,99.90
2018-09-30T09:07:53.225Z,99.90
2018-09-30T09:10:21.716Z,99.90
2018-09-30T09:12:50.145Z,99.90
2018-09-30T09:15:18.753Z,99.90
2018-09-30T09:17:47.145Z,99.90
2018-09-30T09:20:15.636Z,99.90
2018-09-30T09:22:44.184Z,99.90
2018-09-30T09:25:13.441Z,99.90
2018-09-30T09:27:41.845Z,99.90
2018-09-30T09:30:10.277Z,99.90
2018-09-30T09:32:39.336Z,99.90
2018-09-30T09:35:09.352Z,99.90
2018-09-30T09:37:38.497Z,99.90
2018-09-30T09:40:08.980Z,99.90
2018-09-30T09:42:40.856Z,99.90
2018-09-30T09:45:09.509Z,99.90
2018-09-30T09:47:37.896Z,99.90
2018-09-30T09:50:07.252Z,99.90
2018-09-30T09:52:35.747Z,99.90
2018-09-30T09:55:04.354Z,99.90
2018-09-30T09:57:32.817Z,99.90
2018-09-30T10:00:01.343Z,99.90
2018-09-30T10:02:31.496Z,99.90
2018-09-30T10:05:00.164Z,99.90
2018-09-30T10:07:28.552Z,99.90
2018-09-30T10:09:57.779Z,99.90
2018-09-30T10:12:26.247Z,99.90
2018-09-30T10:14:54.669Z,99.90
2018-09-30T10:17:23.240Z,98.60
2018-09-30T10:19:51.881Z,97.00
2018-09-30T10:22:20.493Z,95.60
2018-09-30T10:24:48.898Z,95.40
2018-09-30T10:27:17.312Z,93.70
2018-09-30T10:29:45.720Z,92.90
2018-09-30T10:32:14.648Z,90.70
2018-09-30T10:34:43.128Z,87.70
2018-09-30T10:37:11.538Z,87.00
2018-09-30T10:39:39.953Z,90.20
2018-09-30T10:42:08.450Z,88.90
2018-09-30T10:44:36.885Z,84.20
2018-09-30T10:47:05.861Z,87.20
2018-09-30T10:49:34.331Z,85.20
2018-09-30T10:52:02.753Z,85.50
2018-09-30T10:54:31.267Z,82.80
2018-09-30T10:57:00.126Z,81.90
2018-09-30T10:59:28.458Z,80.10
2018-09-30T11:01:56.861Z,81.40
2018-09-30T11:04:25.281Z,80.50
2018-09-30T11:06:53.734Z,80.80
2018-09-30T11:09:22.112Z,78.20
2018-09-30T11:11:50.569Z,78.20
2018-09-30T11:14:19.297Z,76.90
2018-09-30T11:16:47.826Z,79.20
2018-09-30T11:19:16.233Z,76.00
2018-09-30T11:21:44.635Z,75.30
2018-09-30T11:24:13.024Z,75.20
2018-09-30T11:26:41.576Z,74.60
2018-09-30T11:29:10.030Z,73.80
2018-09-30T11:31:38.571Z,73.60
2018-09-30T11:34:07.148Z,73.50
2018-09-30T11:36:35.547Z,73.70
2018-09-30T11:39:05.632Z,73.50
2018-09-30T11:41:34.025Z,74.80
2018-09-30T11:44:02.428Z,73.70
2018-09-30T11:46:30.864Z,70.20
2018-09-30T11:48:59.299Z,69.50
2018-09-30T11:51:27.905Z,68.80
2018-09-30T11:53:56.333Z,68.50
2018-09-30T11:56:24.797Z,69.30
2018-09-30T11:58:53.212Z,68.30
2018-09-30T12:01:21.688Z,67.40
2018-09-30T12:03:50.138Z,68.30
2018-09-30T12:06:19.339Z,66.30
2018-09-30T12:08:47.771Z,67.30
2018-09-30T12:11:16.173Z,67.50
2018-09-30T12:13:44.775Z,65.50
2018-09-30T12:16:13.164Z,67.10
2018-09-30T12:18:41.719Z,69.10
2018-09-30T12:21:10.091Z,67.40
2018-09-30T12:23:38.552Z,67.60
2018-09-30T12:26:07.508Z,67.30
2018-09-30T12:28:35.914Z,69.00
2018-09-30T12:31:04.352Z,68.70
2018-09-30T12:33:33.541Z,68.90
2018-09-30T12:36:01.949Z,70.60
2018-09-30T12:38:30.353Z,70.20
2018-09-30T12:40:58.775Z,69.50
2018-09-30T12:43:27.176Z,68.60
2018-09-30T12:45:55.688Z,69.80
2018-09-30T12:48:24.117Z,70.10
2018-09-30T12:50:52.556Z,67.70
2018-09-30T12:53:20.998Z,67.60
2018-09-30T12:55:51.433Z,66.80
2018-09-30T12:58:19.808Z,65.30
2018-09-30T13:00:48.332Z,63.10
2018-09-30T13:03:16.760Z,64.20
2018-09-30T13:05:45.212Z,65.50
2018-09-30T13:08:13.588Z,64.70
2018-09-30T13:10:41.989Z,63.90
2018-09-30T13:13:10.492Z,64.40
2018-09-30T13:15:38.904Z,67.70
2018-09-30T13:18:07.671Z,66.10
2018-09-30T13:20:36.241Z,64.30
2018-09-30T13:23:05.637Z,65.60
2018-09-30T13:25:34.088Z,64.70
2018-09-30T13:28:02.567Z,64.90
2018-09-30T13:30:30.979Z,65.20
2018-09-30T13:32:59.357Z,66.50
2018-09-30T13:35:27.792Z,66.30
2018-09-30T13:37:57.262Z,66.80
2018-09-30T13:40:26.594Z,67.00
2018-09-30T13:42:54.897Z,69.30
2018-09-30T13:45:23.288Z,71.80
2018-09-30T13:47:51.736Z,71.50
2018-09-30T13:50:20.172Z,70.50
2018-09-30T13:52:48.661Z,71.90
2018-09-30T13:55:17.093Z,71.80
2018-09-30T13:57:45.564Z,71.10
2018-09-30T14:00:14.241Z,71.30
2018-09-30T14:02:42.673Z,72.30
2018-09-30T14:05:11.099Z,71.30
2018-09-30T14:07:39.680Z,74.20
2018-09-30T14:10:08.266Z,73.00
2018-09-30T14:12:36.682Z,74.10
2018-09-30T14:15:05.355Z,75.20
2018-09-30T14:17:33.874Z,77.40
2018-09-30T14:20:02.277Z,77.10
2018-09-30T14:22:30.706Z,75.50
2018-09-30T14:24:59.257Z,76.90
2018-09-30T14:27:27.805Z,76.80
2018-09-30T14:29:56.247Z,77.40
2018-09-30T14:32:24.754Z,76.70
2018-09-30T14:34:53.431Z,77.50
2018-09-30T14:37:21.812Z,77.10
2018-09-30T14:39:50.479Z,76.50
2018-09-30T14:42:18.916Z,76.80
2018-09-30T14:44:47.320Z,76.50
2018-09-30T14:47:15.740Z,77.80
2018-09-30T14:49:44.168Z,77.60
2018-09-30T14:52:12.628Z,77.20
2018-09-30T14:54:41.012Z,78.60
2018-09-30T14:57:09.602Z,78.20
2018-09-30T14:59:38.633Z,77.30
2018-09-30T15:02:07.182Z,77.30
2018-09-30T15:04:35.686Z,76.80
2018-09-30T15:07:04.907Z,77.10
2018-09-30T15:09:33.470Z,76.10
2018-09-30T15:12:01.980Z,77.50
2018-09-30T15:14:30.416Z,76.80
2018-09-30T15:16:58.832Z,78.20
2018-09-30T15:19:27.297Z,79.80
2018-09-30T15:21:55.744Z,79.90
2018-09-30T15:24:24.148Z,81.50
2018-09-30T15:26:52.708Z,79.50
2018-09-30T15:29:22.852Z,78.50
2018-09-30T15:31:51.345Z,78.40
2018-09-30T15:34:19.732Z,79.90
2018-09-30T15:36:48.157Z,78.80
2018-09-30T15:39:16.604Z,78.80
2018-09-30T15:41:45.021Z,79.40
2018-09-30T15:44:13.570Z,78.90
2018-09-30T15:46:42.101Z,79.90
2018-09-30T15:49:10.996Z,80.70
2018-09-30T15:51:39.428Z,81.40
2018-09-30T15:54:07.887Z,82.40
2018-09-30T15:56:36.308Z,84.00
2018-09-30T15:59:04.778Z,83.90
2018-09-30T16:01:33.224Z,85.00
2018-09-30T16:04:01.637Z,86.00
2018-09-30T16:06:30.096Z,86.70
2018-09-30T16:08:58.552Z,88.20
2018-09-30T16:11:27.272Z,88.90
2018-09-30T16:13:55.746Z,89.60
2018-09-30T16:16:24.170Z,89.90
2018-09-30T16:18:52.824Z,90.30
2018-09-30T16:21:21.325Z,90.50
2018-09-30T16:23:49.672Z,91.00
2018-09-30T16:26:23.528Z,92.00
2018-09-30T16:28:54.407Z,92.50
2018-09-30T16:31:23.827Z,92.40
2018-09-30T16:33:53.008Z,93.00
2018-09-30T16:36:23.694Z,93.10
2018-09-30T16:38:54.376Z,93.10
2018-09-30T16:41:25.320Z,93.70
2018-09-30T16:43:53.780Z,94.40
2018-09-30T16:46:22.198Z,94.90
2018-09-30T16:48:50.687Z,95.90
2018-09-30T16:51:19.100Z,96.30
2018-09-30T16:53:47.538Z,97.30
2018-09-30T16:56:16.042Z,97.20
2018-09-30T16:58:44.459Z,97.90
2018-09-30T17:01:12.860Z,98.70
2018-09-30T17:03:41.328Z,99.50
2018-09-30T17:06:09.738Z,99.90
2018-09-30T17:08:38.389Z,99.90
2018-09-30T17:11:06.805Z,99.90
2018-09-30T17:13:35.265Z,99.90
2018-09-30T17:16:03.783Z,99.90
2018-09-30T17:18:32.369Z,99.90
2018-09-30T17:21:01.049Z,99.90
2018-09-30T17:23:29.546Z,99.90
2018-09-30T17:25:58.060Z,99.90
2018-09-30T17:28:26.654Z,99.90
2018-09-30T17:30:55.198Z,99.90
2018-09-30T17:33:23.705Z,99.90
2018-09-30T17:35:52.183Z,99.90
2018-09-30T17:38:20.732Z,99.90
2018-09-30T17:40:49.298Z,99.90
2018-09-30T17:43:17.684Z,99.90
2018-09-30T17:45:46.081Z,99.90
2018-09-30T17:48:14.557Z,99.90
2018-09-30T17:50:43.113Z,99.90
2018-09-30T17:53:11.838Z,99.90
2018-09-30T17:55:40.255Z,99.90
2018-09-30T17:58:08.716Z,99.90
2018-09-30T18:00:37.155Z,99.90
2018-09-30T18:03:05.624Z,99.90
2018-09-30T18:05:34.221Z,99.90
2018-09-30T18:08:02.850Z,99.90
2018-09-30T18:10:31.289Z,99.90
2018-09-30T18:12:59.689Z,99.90
2018-09-30T18:15:28.100Z,99.90
2018-09-30T18:17:56.693Z,99.90
2018-09-30T18:20:25.323Z,99.90
2018-09-30T18:22:54.183Z,99.90
2018-09-30T18:25:22.756Z,99.90
2018-09-30T18:27:51.166Z,99.90
2018-09-30T18:30:19.640Z,99.90
2018-09-30T18:32:48.093Z,99.90
2018-09-30T18:35:17.196Z,99.90
2018-09-30T18:37:45.912Z,99.90
2018-09-30T18:40:14.373Z,99.90
2018-09-30T18:42:43.179Z,99.90
2018-09-30T18:45:11.770Z,99.90
2018-09-30T18:47:40.633Z,99.90
2018-09-30T18:50:09.510Z,99.90
2018-09-30T18:52:38.381Z,99.90
2018-09-30T18:55:07.905Z,99.90
2018-09-30T18:57:36.699Z,99.90
2018-09-30T19:00:05.582Z,99.90
2018-09-30T19:02:34.371Z,99.90
2018-09-30T19:05:03.262Z,99.90
2018-09-30T19:07:32.355Z,99.90
2018-09-30T19:10:01.142Z,99.90
2018-09-30T19:12:29.930Z,99.90
2018-09-30T19:14:59.079Z,99.90
2018-09-30T19:17:27.916Z,99.90
2018-09-30T19:19:56.905Z,99.90
2018-09-30T19:22:26.060Z,99.90
2018-09-30T19:24:54.625Z,99.90
2018-09-30T19:27:23.089Z,99.90
2018-09-30T19:29:51.543Z,99.90
2018-09-30T19:32:20.053Z,99.90
2018-09-30T19:34:48.500Z,99.90
2018-09-30T19:37:17.018Z,99.90
2018-09-30T19:39:45.465Z,99.90
2018-09-30T19:42:13.964Z,99.90
2018-09-30T19:44:42.975Z,99.90
2018-09-30T19:47:11.662Z,99.90
2018-09-30T19:49:40.239Z,99.90
2018-09-30T19:52:08.828Z,99.90
2018-09-30T19:54:37.388Z,99.90
2018-09-30T19:57:06.058Z,99.90
2018-09-30T19:59:34.476Z,99.90
2018-09-30T20:02:02.991Z,99.90
2018-09-30T20:04:31.637Z,99.90
2018-09-30T20:07:00.115Z,99.90
2018-09-30T20:09:28.595Z,99.90
2018-09-30T20:11:57.000Z,99.90
2018-09-30T20:14:25.485Z,99.90
2018-09-30T20:16:54.157Z,99.90
2018-09-30T20:19:22.644Z,99.90
2018-09-30T20:21:51.477Z,99.90
2018-09-30T20:24:19.893Z,99.90
2018-09-30T20:26:48.300Z,99.90
2018-09-30T20:29:16.867Z,99.90
2018-09-30T20:31:45.330Z,99.90
2018-09-30T20:34:13.714Z,99.90
2018-09-30T20:36:42.137Z,99.90
2018-09-30T20:39:10.557Z,99.90
2018-09-30T20:41:39.269Z,99.90
2018-09-30T20:44:07.830Z,99.90
2018-09-30T20:46:36.245Z,99.90
2018-09-30T20:49:04.927Z,99.90
2018-09-30T20:51:33.239Z,99.90
2018-09-30T20:54:01.640Z,99.90
2018-09-30T20:56:30.301Z,99.90
2018-09-30T20:58:58.702Z,99.90
2018-09-30T21:01:27.610Z,99.90
2018-09-30T21:03:56.072Z,99.90
2018-09-30T21:06:26.424Z,99.90
2018-09-30T21:08:55.068Z,99.90
2018-09-30T21:11:23.538Z,99.90
2018-09-30T21:13:51.997Z,99.90
2018-09-30T21:16:20.606Z,99.90
2018-09-30T21:18:49.149Z,99.90
2018-09-30T21:21:17.541Z,99.90
2018-09-30T21:23:47.184Z,99.90
2018-09-30T21:26:15.560Z,99.90
2018-09-30T21:28:43.950Z,99.90
2018-09-30T21:31:12.381Z,99.90
2018-09-30T21:33:42.289Z,99.90
2018-09-30T21:36:10.944Z,99.90
2018-09-30T21:38:39.341Z,99.90
2018-09-30T21:41:07.732Z,99.90
2018-09-30T21:43:36.141Z,99.90
2018-09-30T21:46:04.609Z,99.90
2018-09-30T21:48:33.065Z,99.90
2018-09-30T21:51:01.444Z,99.90
2018-09-30T21:53:29.859Z,99.90
2018-09-30T21:55:58.266Z,99.90
2018-09-30T21:58:26.656Z,99.90
2018-09-30T22:01:01.083Z,99.90
2018-09-30T22:03:29.828Z,99.90
2018-09-30T22:05:58.268Z,99.90
2018-09-30T22:08:26.724Z,99.90
2018-09-30T22:10:55.117Z,99.90
2018-09-30T22:13:23.765Z,99.90
2018-09-30T22:15:52.177Z,99.90
2018-09-30T22:18:20.561Z,99.90
2018-09-30T22:20:48.981Z,99.90
2018-09-30T22:23:17.424Z,99.90
2018-09-30T22:25:45.835Z,99.90
2018-09-30T22:28:14.273Z,99.90
2018-09-30T22:30:42.818Z,99.90
2018-09-30T22:33:11.298Z,99.90
2018-09-30T22:35:40.085Z,99.90
2018-09-30T22:38:08.700Z,99.90
2018-09-30T22:40:37.076Z,99.90
2018-09-30T22:43:05.477Z,99.90
2018-09-30T22:45:33.880Z,99.90
2018-09-30T22:48:02.508Z,99.90
2018-09-30T22:50:30.949Z,99.90
2018-09-30T22:52:59.348Z,99.90
2018-09-30T22:55:27.944Z,99.90
2018-09-30T22:57:56.311Z,99.90
2018-09-30T23:00:24.738Z,99.90
2018-09-30T23:02:53.177Z,99.90
2018-09-30T23:05:21.553Z,99.90
2018-09-30T23:07:50.145Z,99.90
2018-09-30T23:10:18.537Z,99.90
2018-09-30T23:12:46.924Z,99.90
2018-09-30T23:15:15.577Z,99.90
2018-09-30T23:17:43.984Z,99.90
2018-09-30T23:20:16.552Z,99.90
2018-09-30T23:22:45.709Z,99.90
2018-09-30T23:25:14.187Z,99.90
2018-09-30T23:27:42.904Z,99.90
2018-09-30T23:30:11.300Z,99.90
2018-09-30T23:32:39.727Z,99.90
2018-09-30T23:35:08.113Z,99.90
2018-09-30T23:37:36.816Z,99.90
2018-09-30T23:40:05.801Z,99.90
2018-09-30T23:42:34.468Z,99.90
2018-09-30T23:45:02.884Z,99.90
2018-09-30T23:47:31.285Z,99.90
2018-09-30T23:49:59.697Z,99.90
2018-09-30T23:52:28.251Z,99.90
2018-09-30T23:54:56.673Z,99.90
2018-09-30T23:57:25.088Z,99.90
2018-09-30T23:59:53.476Z,99.90
